Urb Monte Trujillo, Puerto Rico
Current Conditions -  °F | °C
As of 8:56 PM on Saturday 22 Nov 2014 (Local Time) from TJSJ Reporting Station
Scattered Clouds Scattered Clouds  
Wind Chill: 79°   Ceiling: Unl
Heat Index: 83°   Visibility: 10mi
Dew Point: 76°   Wind: 5mph
Humidity: 90%   Direction: 100°E
Pressure: 30.01"   Gusts: NA
Location:  18.3569°N, 66.0247°W
Report Text: TJSJ 230056Z 10004KT 10SM FEW026 SCT036 SCT048 26/24 A3001 RMK AO2 SLP162 T02610244 $
Loading
Personal Weather Stations






























Interactive Weather Map New forecast layout! Learn more

10-Day Weather Forecast

Advertisements
Track Severe Weather on mobile